Time;durP1;ratioP1;P1;durP2;ratioP2;P2;SDS_P1;SDS_P2;PMS_P1;PMS_P2;Temp;Humidity;BMP_temperature;BMP_pressure;BME280_temperature;BME280_humidity;BME280_pressure;Samples;Min_cycle;Max_cycle;Signal;HPM_P1;HPM_P2
2022/10/14 00:01:32;;;;;;;0.57;0.57;;;;;;;11.06;73.87;93780.88;5070335;28;20020;-34
2022/10/14 00:03:58;;;;;;;0.35;0.35;;;;;;;10.99;73.96;93773.28;5070477;28;20020;-34
2022/10/14 00:06:30;;;;;;;0.30;0.30;;;;;;;11.04;73.30;93791.75;5069403;28;20035;-34
2022/10/14 00:08:59;;;;;;;0.60;0.60;;;;;;;11.14;73.02;93785.19;5062232;28;20029;-34
2022/10/14 00:11:28;;;;;;;1.15;0.90;;;;;;;11.17;72.69;93778.56;5070020;28;20086;-34
2022/10/14 00:13:56;;;;;;;1.55;1.48;;;;;;;11.19;72.56;93772.50;5070166;28;20032;-34
2022/10/14 00:16:24;;;;;;;0.50;0.50;;;;;;;11.09;72.39;93777.03;5070038;28;20025;-34
2022/10/14 00:18:50;;;;;;;0.67;0.67;;;;;;;11.14;70.50;93751.28;5067475;28;20055;-34
2022/10/14 00:21:16;;;;;;;0.20;0.20;;;;;;;11.28;69.26;93761.66;5065126;28;20052;-34
2022/10/14 00:23:42;;;;;;;0.30;0.30;;;;;;;11.29;68.22;93759.63;5070156;28;20025;-34
2022/10/14 00:26:14;;;;;;;0.30;0.30;;;;;;;11.36;67.82;93756.16;5069590;28;20074;-33
2022/10/14 00:28:40;;;;;;;0.30;0.30;;;;;;;11.26;67.43;93766.97;5066267;28;20035;-33
2022/10/14 00:31:05;;;;;;;0.32;0.32;;;;;;;11.10;67.61;93767.47;5070146;28;20016;-33
2022/10/14 00:33:31;;;;;;;0.50;0.50;;;;;;;10.99;68.34;93765.00;5069833;28;20016;-33
2022/10/14 00:36:00;;;;;;;0.60;0.60;;;;;;;11.03;68.56;93759.88;5069710;28;20404;-33
2022/10/14 00:38:25;;;;;;;;;;;;;;;11.06;68.30;93758.78;5064943;28;20029;-34
2022/10/14 00:40:51;;;;;;;0.30;0.30;;;;;;;11.01;67.95;93768.72;5051593;28;20410;-34
2022/10/14 00:43:18;;;;;;;0.55;0.55;;;;;;;11.03;67.97;93760.59;5069773;28;20035;-33
2022/10/14 00:45:44;;;;;;;0.20;0.20;;;;;;;10.97;68.61;93759.28;5062204;28;20073;-33
2022/10/14 00:48:10;;;;;;;0.25;0.25;;;;;;;10.88;69.13;93762.53;5067662;28;20036;-34
2022/10/14 00:50:37;;;;;;;0.63;0.63;;;;;;;10.84;69.13;93765.66;5051734;28;20496;-33
2022/10/14 00:53:02;;;;;;;0.30;0.30;;;;;;;10.98;68.59;93764.25;5052254;28;20462;-33
2022/10/14 00:55:28;;;;;;;0.40;0.40;;;;;;;11.11;67.90;93755.84;5069642;28;20135;-34
2022/10/14 00:57:54;;;;;;;1.88;1.10;;;;;;;11.07;68.53;93763.75;5065266;28;20059;-34
2022/10/14 01:00:21;;;;;;;0.38;0.38;;;;;;;11.01;68.43;93756.91;5046565;28;20016;-33
2022/10/14 01:02:47;;;;;;;0.40;0.40;;;;;;;11.12;67.98;93760.09;5069532;28;20036;-34
2022/10/14 01:05:14;;;;;;;0.75;0.75;;;;;;;11.14;67.62;93765.09;5069497;28;20054;-33
2022/10/14 01:08:06;;;;;;;0.30;0.30;;;;;;;11.19;67.57;93766.97;5049879;28;20032;-34
2022/10/14 01:10:38;;;;;;;0.47;0.47;;;;;;;11.20;68.54;93763.66;5053495;28;20063;-34
2022/10/14 01:13:26;;;;;;;0.70;0.70;;;;;;;11.22;69.11;93761.06;5051705;28;20029;-34
2022/10/14 01:15:59;;;;;;;0.40;0.40;;;;;;;11.11;69.90;93761.38;5053708;28;20087;-34
2022/10/14 01:18:55;;;;;;;0.20;0.20;;;;;;;11.09;69.75;93761.19;5050060;28;20504;-34
2022/10/14 01:21:40;;;;;;;1.23;0.40;;;;;;;11.09;70.01;93757.69;5063899;28;20024;-34
2022/10/14 01:24:21;;;;;;;0.30;0.30;;;;;;;10.99;70.52;93740.88;5064530;28;20503;-34
2022/10/14 01:27:01;;;;;;;0.20;0.20;;;;;;;11.17;69.61;93748.16;5044355;28;20032;-34
2022/10/14 01:30:11;;;;;;;0.40;0.40;;;;;;;11.07;70.21;93747.19;5068088;28;20024;-33
2022/10/14 01:32:52;;;;;;;0.20;0.20;;;;;;;11.03;70.66;93740.53;5045883;28;20163;-34
2022/10/14 01:35:20;;;;;;;0.57;0.57;;;;;;;10.94;70.82;93746.53;5059145;28;20061;-34
2022/10/14 01:37:51;;;;;;;0.73;0.73;;;;;;;10.89;71.30;93739.16;5067285;28;20432;-34
2022/10/14 01:40:24;;;;;;;0.20;0.20;;;;;;;10.93;71.29;93731.28;5050591;28;20028;-34
2022/10/14 01:42:51;;;;;;;1.30;0.75;;;;;;;10.79;71.47;93727.88;5055407;28;20031;-34
2022/10/14 01:45:19;;;;;;;0.20;0.20;;;;;;;10.83;71.39;93724.78;5033316;28;20020;-34
2022/10/14 01:47:47;;;;;;;0.20;0.20;;;;;;;10.83;71.25;93722.00;5047262;28;20052;-34
2022/10/14 01:50:16;;;;;;;0.35;0.35;;;;;;;10.76;71.86;93728.97;5043505;28;20037;-34
2022/10/14 01:52:49;;;;;;;0.30;0.30;;;;;;;10.75;71.55;93723.97;5047723;28;20047;-34
2022/10/14 01:55:18;;;;;;;0.22;0.22;;;;;;;10.68;72.09;93715.09;5051451;28;20100;-34
2022/10/14 01:57:44;;;;;;;0.20;0.20;;;;;;;10.77;72.34;93727.69;5047369;28;20036;-34
2022/10/14 02:00:10;;;;;;;0.20;0.20;;;;;;;10.68;72.32;93710.88;5057206;28;20412;-34
2022/10/14 02:02:36;;;;;;;0.32;0.32;;;;;;;10.64;72.76;93717.47;5064625;28;20024;-33
2022/10/14 02:05:13;;;;;;;0.52;0.52;;;;;;;10.76;72.03;93722.69;5072314;28;20173;-34
2022/10/14 02:07:42;;;;;;;0.77;0.77;;;;;;;10.66;72.15;93714.91;5052187;28;20536;-34
2022/10/14 02:10:34;;;;;;;0.30;0.30;;;;;;;10.65;72.14;93716.19;5053704;28;20025;-33
2022/10/14 02:13:23;;;;;;;0.85;0.85;;;;;;;10.62;72.51;93722.06;5065655;28;20028;-33
2022/10/14 02:16:16;;;;;;;1.35;0.90;;;;;;;10.53;72.61;93709.47;5023662;28;20044;-33
2022/10/14 02:19:06;;;;;;;0.40;0.40;;;;;;;10.48;72.63;93699.31;5054505;28;20029;-33
2022/10/14 02:21:38;;;;;;;0.20;0.20;;;;;;;10.49;73.29;93717.38;5069470;28;20020;-33
2022/10/14 02:24:11;;;;;;;0.70;0.70;;;;;;;10.60;73.02;93702.53;5072385;28;20496;-34
2022/10/14 02:26:38;;;;;;;0.68;0.63;;;;;;;10.59;72.88;93710.06;5065618;28;20055;-34
2022/10/14 02:29:04;;;;;;;0.43;0.43;;;;;;;10.43;72.93;93694.69;5047715;28;20035;-34
2022/10/14 02:31:31;;;;;;;0.50;0.50;;;;;;;10.63;72.37;93709.75;5070902;28;20077;-33
2022/10/14 02:33:59;;;;;;;0.30;0.30;;;;;;;10.53;72.71;93715.00;5066390;28;20109;-33
2022/10/14 02:36:26;;;;;;;0.53;0.53;;;;;;;10.58;72.91;93714.13;5052198;28;20016;-34
2022/10/14 02:38:53;;;;;;;0.40;0.40;;;;;;;10.63;72.47;93707.69;5046183;28;20521;-33
2022/10/14 02:41:20;;;;;;;3.83;1.52;;;;;;;10.61;72.72;93713.03;5047693;28;20031;-34
2022/10/14 02:43:46;;;;;;;0.25;0.25;;;;;;;10.29;73.03;93685.03;5044789;28;20025;-33
2022/10/14 02:46:11;;;;;;;0.82;0.82;;;;;;;10.44;72.94;93700.94;5042424;28;20028;-34
2022/10/14 02:48:37;;;;;;;0.45;0.45;;;;;;;10.49;73.10;93700.81;5045658;28;20567;-34
2022/10/14 02:51:03;;;;;;;1.40;1.38;;;;;;;10.51;72.92;93709.28;5067738;28;20045;-34
2022/10/14 02:53:29;;;;;;;0.30;0.30;;;;;;;10.34;73.31;93711.75;5071839;28;20024;-34
2022/10/14 02:55:55;;;;;;;0.40;0.40;;;;;;;10.32;73.22;93702.53;5071410;28;20016;-34
2022/10/14 02:58:20;;;;;;;0.28;0.28;;;;;;;10.46;73.12;93701.88;5071655;28;20027;-34
2022/10/14 03:00:48;;;;;;;0.80;0.80;;;;;;;10.40;72.99;93706.06;5071421;28;20020;-34
2022/10/14 03:03:14;;;;;;;0.43;0.43;;;;;;;10.42;73.37;93697.97;5071519;28;20012;-34
2022/10/14 03:05:39;;;;;;;0.20;0.20;;;;;;;10.30;74.05;93694.78;5065353;28;20485;-34
2022/10/14 03:08:04;;;;;;;0.75;0.75;;;;;;;10.41;73.42;93711.06;5064782;28;20024;-34
2022/10/14 03:10:30;;;;;;;1.13;0.70;;;;;;;10.42;73.55;93706.25;5068797;28;20020;-33
2022/10/14 03:12:55;;;;;;;1.27;1.27;;;;;;;10.36;73.51;93698.16;5061502;28;20545;-34
2022/10/14 03:15:21;;;;;;;0.80;0.80;;;;;;;10.28;74.21;93697.34;5071393;28;20408;-34
2022/10/14 03:17:46;;;;;;;0.50;0.50;;;;;;;10.34;73.94;93686.91;5071251;28;20408;-34
2022/10/14 03:20:12;;;;;;;2.17;1.40;;;;;;;10.44;73.24;93693.41;5071604;28;20017;-33
2022/10/14 03:22:37;;;;;;;0.30;0.30;;;;;;;10.53;72.71;93686.66;5067598;28;20489;-34
2022/10/14 03:25:03;;;;;;;2.33;1.52;;;;;;;10.55;72.32;93682.06;5067719;28;20523;-33
2022/10/14 03:27:29;;;;;;;1.10;0.98;;;;;;;10.50;73.21;93682.94;5071186;28;20033;-33
2022/10/14 03:29:54;;;;;;;1.08;1.05;;;;;;;10.56;72.38;93685.56;5063256;28;20025;-34
2022/10/14 03:32:19;;;;;;;0.45;0.45;;;;;;;10.60;72.40;93675.66;5046904;28;20029;-34
2022/10/14 03:34:45;;;;;;;0.38;0.38;;;;;;;10.56;72.63;93688.34;5067432;28;20017;-34
2022/10/14 03:37:11;;;;;;;0.63;0.40;;;;;;;10.41;73.31;93685.47;5068785;28;20024;-34
2022/10/14 03:39:36;;;;;;;0.40;0.40;;;;;;;10.35;73.42;93682.84;5067938;28;20484;-34
2022/10/14 03:42:02;;;;;;;0.30;0.30;;;;;;;10.39;73.34;93683.28;5070685;28;20024;-34
2022/10/14 03:44:27;;;;;;;0.40;0.40;;;;;;;10.50;72.79;93680.19;5070727;28;20031;-34
2022/10/14 03:46:53;;;;;;;0.82;0.82;;;;;;;10.47;72.53;93678.53;5070120;28;20023;-33
2022/10/14 03:49:18;;;;;;;1.95;1.15;;;;;;;10.27;73.28;93681.31;5065831;28;20094;-34
2022/10/14 03:51:44;;;;;;;0.22;0.22;;;;;;;10.16;73.64;93681.59;5070337;28;20045;-34
2022/10/14 03:54:09;;;;;;;0.55;0.55;;;;;;;10.20;73.51;93688.25;5070326;28;20028;-33
2022/10/14 03:56:35;;;;;;;0.52;0.52;;;;;;;10.25;73.25;93683.88;5070478;28;20016;-33
2022/10/14 03:59:00;;;;;;;1.13;1.10;;;;;;;10.22;72.92;93696.03;5070183;28;20024;-33
2022/10/14 04:01:26;;;;;;;0.63;0.63;;;;;;;10.24;72.84;93685.94;5070543;28;20016;-33
2022/10/14 04:03:51;;;;;;;0.57;0.50;;;;;;;10.26;72.69;93675.09;5052843;28;20047;-33
2022/10/14 04:06:17;;;;;;;0.30;0.30;;;;;;;10.27;72.57;93664.75;5070580;28;20511;-34
2022/10/14 04:08:42;;;;;;;0.32;0.32;;;;;;;10.17;73.09;93664.53;5069552;28;20454;-34
2022/10/14 04:11:08;;;;;;;0.30;0.30;;;;;;;10.11;73.54;93666.69;5068054;28;20104;-34
2022/10/14 04:13:33;;;;;;;0.38;0.38;;;;;;;10.03;73.83;93662.38;5065034;28;20024;-33
2022/10/14 04:16:03;;;;;;;0.57;0.57;;;;;;;9.76;74.98;93659.03;5070514;28;20077;-34
2022/10/14 04:18:28;;;;;;;0.77;0.77;;;;;;;9.89;74.95;93654.19;5069817;28;20059;-34
2022/10/14 04:20:54;;;;;;;0.35;0.35;;;;;;;9.89;74.97;93656.19;5063500;28;20032;-33
2022/10/14 04:23:19;;;;;;;0.77;0.77;;;;;;;9.82;74.78;93660.34;5069386;28;20078;-34
2022/10/14 04:25:45;;;;;;;3.25;1.80;;;;;;;9.90;74.36;93661.16;5066289;28;20052;-34
2022/10/14 04:28:10;;;;;;;0.20;0.20;;;;;;;9.96;73.49;93652.75;5070231;28;20041;-34
2022/10/14 04:30:36;;;;;;;1.20;1.15;;;;;;;9.92;73.29;93652.34;5068304;28;20028;-33
2022/10/14 04:33:01;;;;;;;0.43;0.43;;;;;;;9.68;74.07;93645.16;5064012;28;20094;-34
2022/10/14 04:35:27;;;;;;;0.77;0.77;;;;;;;9.57;74.24;93656.44;5068488;28;20021;-34
2022/10/14 04:37:53;;;;;;;0.47;0.47;;;;;;;9.72;73.72;93647.59;5069556;28;20031;-33
2022/10/14 04:40:21;;;;;;;1.35;1.25;;;;;;;9.57;74.60;93655.72;5062458;28;20017;-34
2022/10/14 04:42:46;;;;;;;0.95;0.95;;;;;;;9.47;74.60;93651.94;5046166;28;20017;-33
2022/10/14 04:45:12;;;;;;;0.30;0.30;;;;;;;9.52;74.81;93653.81;5051715;28;20045;-33
2022/10/14 04:47:37;;;;;;;0.40;0.40;;;;;;;9.59;74.15;93655.94;5070021;28;20109;-33
2022/10/14 04:50:03;;;;;;;0.40;0.40;;;;;;;9.50;74.05;93648.88;5069572;28;20500;-34
2022/10/14 04:52:28;;;;;;;0.50;0.50;;;;;;;9.51;73.94;93652.34;5063230;28;20021;-34
2022/10/14 04:54:53;;;;;;;0.30;0.30;;;;;;;9.48;74.28;93650.66;5065476;28;20028;-33
2022/10/14 04:57:19;;;;;;;0.20;0.20;;;;;;;9.50;74.21;93656.38;5067358;28;20024;-34
2022/10/14 04:59:44;;;;;;;0.22;0.22;;;;;;;9.56;73.89;93651.47;5068634;28;20024;-33
2022/10/14 05:02:10;;;;;;;0.43;0.43;;;;;;;9.56;73.61;93652.22;5069834;28;20021;-34
2022/10/14 05:04:35;;;;;;;0.20;0.20;;;;;;;9.62;73.10;93652.06;5061135;28;20078;-34
2022/10/14 05:07:01;;;;;;;0.50;0.50;;;;;;;9.59;73.59;93648.41;5069847;28;20025;-34
2022/10/14 05:09:26;;;;;;;0.20;0.20;;;;;;;9.53;74.25;93655.31;5067912;28;20066;-34
2022/10/14 05:11:52;;;;;;;0.70;0.70;;;;;;;9.54;74.35;93641.00;5067109;28;20033;-34
2022/10/14 05:14:17;;;;;;;0.52;0.52;;;;;;;9.66;74.13;93655.22;5054488;28;20028;-34
2022/10/14 05:16:42;;;;;;;1.23;1.13;;;;;;;9.47;73.28;93649.94;5071188;28;20028;-33
2022/10/14 05:19:08;;;;;;;0.47;0.47;;;;;;;9.57;73.37;93652.97;5073425;28;20021;-33
2022/10/14 05:21:33;;;;;;;1.00;0.98;;;;;;;9.55;73.63;93652.78;5073157;28;20036;-33
2022/10/14 05:23:59;;;;;;;2.90;2.67;;;;;;;9.50;74.22;93653.63;5073381;28;20029;-33
2022/10/14 05:26:24;;;;;;;2.95;2.25;;;;;;;9.55;74.26;93650.72;5072886;28;20028;-33
2022/10/14 05:28:52;;;;;;;1.80;1.70;;;;;;;9.65;74.49;93657.28;5073208;28;20024;-34
2022/10/14 05:31:18;;;;;;;1.48;1.38;;;;;;;9.62;74.36;93658.34;5071517;28;20029;-33
2022/10/14 05:33:43;;;;;;;1.65;1.60;;;;;;;9.74;74.18;93661.56;5073271;28;20377;-33
2022/10/14 05:36:09;;;;;;;1.92;1.80;;;;;;;9.67;74.70;93659.47;5068398;28;20500;-34
2022/10/14 05:38:34;;;;;;;2.40;2.22;;;;;;;9.68;74.92;93661.69;5073369;28;20071;-34
2022/10/14 05:41:00;;;;;;;2.70;2.50;;;;;;;9.81;74.22;93658.16;5073274;28;20009;-34
2022/10/14 05:43:25;;;;;;;0.85;0.85;;;;;;;10.03;73.64;93665.84;5072998;28;20024;-34
2022/10/14 05:45:51;;;;;;;2.25;2.05;;;;;;;10.20;73.13;93671.72;5073142;28;20035;-33
2022/10/14 05:48:17;;;;;;;1.13;1.02;;;;;;;10.38;73.26;93673.50;5070066;28;20029;-34
2022/10/14 05:50:42;;;;;;;1.15;1.15;;;;;;;10.55;72.97;93657.22;5071332;28;20125;-34
2022/10/14 05:53:09;;;;;;;2.33;1.65;;;;;;;10.78;73.01;93671.16;5063589;28;20496;-34
2022/10/14 05:55:34;;;;;;;1.65;1.55;;;;;;;10.91;72.30;93659.25;5072701;28;20056;-34
2022/10/14 05:58:00;;;;;;;1.88;0.93;;;;;;;11.10;71.20;93677.03;5072673;28;20105;-34
2022/10/14 06:00:26;;;;;;;1.75;1.65;;;;;;;11.28;70.49;93675.97;5068663;28;20031;-34
2022/10/14 06:02:52;;;;;;;1.50;1.10;;;;;;;11.52;69.64;93674.75;5072767;28;20025;-34
2022/10/14 06:05:17;;;;;;;0.60;0.60;;;;;;;11.71;68.27;93671.69;5067886;28;20028;-34
2022/10/14 06:07:43;;;;;;;0.50;0.50;;;;;;;11.94;68.24;93678.72;5068960;28;20028;-34
2022/10/14 06:10:09;;;;;;;1.08;1.08;;;;;;;12.22;65.67;93685.38;5070504;28;20040;-34
2022/10/14 06:12:35;;;;;;;0.35;0.35;;;;;;;12.43;64.76;93688.69;5069309;28;20032;-34
2022/10/14 06:15:01;;;;;;;0.20;0.20;;;;;;;12.70;64.43;93678.69;5068915;28;20060;-34
2022/10/14 06:17:27;;;;;;;0.85;0.85;;;;;;;13.07;62.70;93688.22;5072437;28;20173;-34
2022/10/14 06:19:53;;;;;;;0.30;0.30;;;;;;;13.29;60.51;93688.16;5072291;28;20020;-34
2022/10/14 06:22:18;;;;;;;0.45;0.40;;;;;;;13.66;60.37;93680.94;5072049;28;20162;-34
2022/10/14 06:24:43;;;;;;;0.20;0.20;;;;;;;13.93;58.98;93686.69;5047917;28;20408;-34
2022/10/14 06:27:09;;;;;;;0.30;0.30;;;;;;;14.19;59.26;93692.44;5072225;28;20059;-34
2022/10/14 06:29:36;;;;;;;0.30;0.30;;;;;;;14.39;57.60;93682.31;5071556;28;20040;-34
2022/10/14 06:32:06;;;;;;;0.40;0.40;;;;;;;14.39;56.31;93680.28;5064728;28;20044;-34
2022/10/14 06:34:31;;;;;;;0.20;0.20;;;;;;;14.38;56.55;93680.81;5072493;28;20024;-34
2022/10/14 06:36:58;;;;;;;0.50;0.50;;;;;;;14.28;56.57;93682.75;5072372;28;20507;-34
2022/10/14 06:39:23;;;;;;;0.20;0.20;;;;;;;14.39;56.75;93690.66;5071645;28;20031;-34
2022/10/14 06:41:49;;;;;;;0.20;0.20;;;;;;;14.50;55.96;93681.84;5066362;28;20036;-34
2022/10/14 06:44:15;;;;;;;0.10;0.10;;;;;;;14.59;56.12;93686.03;5071953;28;20020;-34
2022/10/14 06:46:41;;;;;;;0.20;0.20;;;;;;;14.48;56.16;93686.50;5072043;28;20416;-34
2022/10/14 06:49:07;;;;;;;0.20;0.20;;;;;;;14.13;56.95;93689.16;5072199;28;20025;-34
2022/10/14 06:51:32;;;;;;;0.40;0.40;;;;;;;14.40;56.55;93689.34;5071574;28;20473;-34
2022/10/14 06:53:58;;;;;;;0.30;0.30;;;;;;;14.40;56.26;93683.81;5071958;28;20028;-34
2022/10/14 06:56:23;;;;;;;0.50;0.50;;;;;;;14.36;56.42;93689.00;5064647;28;20028;-34
2022/10/14 06:58:53;;;;;;;0.52;0.52;;;;;;;14.53;55.91;93680.69;5071602;28;20462;-34
2022/10/14 07:01:19;;;;;;;0.30;0.30;;;;;;;14.61;55.68;93692.50;5064947;28;20516;-33
2022/10/14 07:03:44;;;;;;;0.22;0.22;;;;;;;14.86;55.10;93684.09;5070079;28;20032;-34
2022/10/14 07:06:10;;;;;;;0.55;0.55;;;;;;;14.96;55.07;93682.91;5063800;28;20029;-34
2022/10/14 07:08:35;;;;;;;0.20;0.20;;;;;;;15.04;54.72;93683.56;5068926;28;20424;-34
2022/10/14 07:11:01;;;;;;;0.40;0.40;;;;;;;15.33;53.61;93671.91;5070833;28;20024;-34
2022/10/14 07:13:27;;;;;;;0.30;0.30;;;;;;;15.75;53.01;93673.25;5071692;28;20028;-34
2022/10/14 07:15:53;;;;;;;0.30;0.30;;;;;;;15.95;52.02;93674.09;5071358;28;20440;-34
2022/10/14 07:18:18;;;;;;;0.30;0.30;;;;;;;16.26;52.10;93677.91;5071121;28;20031;-34
2022/10/14 07:20:44;;;;;;;0.30;0.30;;;;;;;16.35;49.77;93674.41;5071528;28;20017;-34
2022/10/14 07:23:10;;;;;;;1.10;0.60;;;;;;;16.55;49.77;93667.59;5062879;28;20060;-34
2022/10/14 07:25:36;;;;;;;1.65;0.40;;;;;;;16.37;49.68;93676.63;5071464;28;20233;-34
2022/10/14 07:28:01;;;;;;;0.20;0.20;;;;;;;16.42;50.64;93672.81;5070945;28;20024;-34
2022/10/14 07:30:27;;;;;;;0.28;0.28;;;;;;;16.36;50.44;93666.78;5071138;28;20066;-34
2022/10/14 07:32:53;;;;;;;0.20;0.20;;;;;;;16.58;49.56;93666.44;5070232;28;20021;-34
2022/10/14 07:35:19;;;;;;;0.60;0.60;;;;;;;16.62;49.26;93666.75;5059470;28;20085;-34
2022/10/14 07:37:45;;;;;;;0.20;0.20;;;;;;;17.53;48.13;93665.06;5069851;28;20093;-34
2022/10/14 07:40:11;;;;;;;0.30;0.30;;;;;;;18.34;45.37;93663.09;5070963;28;20028;-34
2022/10/14 07:42:36;;;;;;;0.22;0.22;;;;;;;18.71;43.62;93666.34;5070774;28;20056;-34
2022/10/14 07:45:03;;;;;;;0.35;0.35;;;;;;;18.67;45.17;93663.25;5070754;28;20086;-34
2022/10/14 07:47:29;;;;;;;0.52;0.52;;;;;;;18.47;42.01;93664.69;5065466;28;20024;-35
2022/10/14 07:49:54;;;;;;;0.10;0.10;;;;;;;18.37;44.08;93673.09;5069266;28;20581;-34
2022/10/14 07:52:20;;;;;;;0.30;0.30;;;;;;;18.34;42.92;93657.50;5070455;28;20033;-34
2022/10/14 07:54:45;;;;;;;0.10;0.10;;;;;;;18.23;42.41;93669.31;5065514;28;20092;-35
2022/10/14 07:57:11;;;;;;;0.20;0.20;;;;;;;17.96;43.26;93672.34;5067168;28;20020;-34
2022/10/14 07:59:36;;;;;;;0.10;0.10;;;;;;;18.02;44.14;93663.63;5069689;28;20511;-34
2022/10/14 08:02:03;;;;;;;1.15;0.93;;;;;;;18.22;43.59;93665.06;5070127;28;20155;-34
2022/10/14 08:04:28;;;;;;;0.25;0.25;;;;;;;18.33;43.76;93660.88;5065507;28;20052;-34
2022/10/14 08:06:54;;;;;;;0.45;0.45;;;;;;;18.60;43.69;93662.09;5069406;28;20465;-34
2022/10/14 08:09:19;;;;;;;0.20;0.20;;;;;;;18.80;43.21;93671.13;5070300;28;20505;-34
2022/10/14 08:11:45;;;;;;;0.10;0.10;;;;;;;18.96;43.91;93652.63;5070239;28;20078;-34
2022/10/14 08:14:11;;;;;;;0.20;0.20;;;;;;;18.93;41.99;93662.22;5068999;28;20025;-34
2022/10/14 08:16:38;;;;;;;0.10;0.10;;;;;;;18.78;43.04;93673.78;5070214;28;20421;-35
2022/10/14 08:19:07;;;;;;;0.63;0.63;;;;;;;18.61;44.03;93663.59;5070112;28;20031;-34
2022/10/14 08:21:32;;;;;;;0.85;0.65;;;;;;;18.97;43.83;93658.97;5070220;28;20024;-34
2022/10/14 08:23:58;;;;;;;0.10;0.10;;;;;;;18.80;42.19;93668.31;5064925;28;20041;-34
2022/10/14 08:26:31;;;;;;;0.10;0.10;;;;;;;17.84;44.69;93674.28;5069946;28;20094;-34
2022/10/14 08:28:58;;;;;;;0.20;0.20;;;;;;;17.51;46.10;93669.78;5069907;28;20432;-34
2022/10/14 08:31:24;;;;;;;0.20;0.20;;;;;;;17.24;46.85;93662.25;5068487;28;20029;-34
2022/10/14 08:33:49;;;;;;;0.30;0.30;;;;;;;16.89;48.45;93668.72;5052582;28;20105;-34
2022/10/14 08:36:16;;;;;;;0.50;0.50;;;;;;;16.96;50.06;93665.03;5070412;28;20043;-34
2022/10/14 08:38:42;;;;;;;0.38;0.38;;;;;;;17.17;48.47;93668.00;5069696;28;20040;-34
2022/10/14 08:41:16;;;;;;;0.50;0.47;;;;;;;17.38;47.03;93676.50;5069864;28;20117;-34
2022/10/14 08:43:48;;;;;;;0.30;0.30;;;;;;;17.10;46.79;93666.09;5068475;28;20039;-34
2022/10/14 08:46:26;;;;;;;0.98;0.82;;;;;;;17.22;47.35;93667.69;5041528;28;20037;-34
2022/10/14 08:49:00;;;;;;;0.68;0.40;;;;;;;17.69;46.28;93657.13;5045166;28;20031;-34
2022/10/14 08:51:26;;;;;;;0.77;0.77;;;;;;;18.02;47.39;93656.00;5049644;28;20153;-34
2022/10/14 08:53:55;;;;;;;0.10;0.10;;;;;;;18.41;44.59;93662.16;5043880;28;20059;-34
2022/10/14 08:56:22;;;;;;;0.40;0.40;;;;;;;18.50;44.26;93652.31;5049202;28;20422;-35
2022/10/14 08:58:50;;;;;;;0.65;0.65;;;;;;;18.65;45.12;93663.13;5047151;28;20191;-34
2022/10/14 09:01:22;;;;;;;0.43;0.40;;;;;;;18.89;44.42;93664.75;5050255;28;20033;-34
2022/10/14 09:03:47;;;;;;;0.93;0.85;;;;;;;19.33;44.00;93653.69;5052040;28;20029;-34
2022/10/14 09:06:21;;;;;;;0.73;0.73;;;;;;;19.46;43.68;93667.16;5069898;28;20028;-34
2022/10/14 09:08:48;;;;;;;1.33;1.23;;;;;;;19.49;42.37;93673.63;5044242;28;20515;-34
2022/10/14 09:11:18;;;;;;;0.52;0.52;;;;;;;18.86;43.51;93665.97;5049862;28;20029;-34
2022/10/14 09:13:58;;;;;;;0.75;0.75;;;;;;;19.17;43.47;93661.00;5069632;28;20033;-34
2022/10/14 09:16:27;;;;;;;0.20;0.20;;;;;;;19.20;42.85;93657.03;5050944;28;20036;-34
2022/10/14 09:18:56;;;;;;;;;;;;;;;19.44;42.74;93660.69;5052685;28;20021;-34
2022/10/14 09:21:26;;;;;;;0.20;0.20;;;;;;;19.63;41.40;93660.53;5068312;28;20312;-34
2022/10/14 09:24:01;;;;;;;1.30;0.85;;;;;;;19.47;41.96;93659.47;5069638;28;20060;-34
2022/10/14 09:26:44;;;;;;;0.55;0.55;;;;;;;18.98;43.04;93655.56;5069249;28;20062;-34
2022/10/14 09:29:30;;;;;;;0.43;0.35;;;;;;;19.05;42.49;93660.22;5069280;28;20119;-34
2022/10/14 09:32:04;;;;;;;0.65;0.57;;;;;;;19.21;43.77;93652.88;5044951;28;20025;-34
2022/10/14 09:34:44;;;;;;;0.10;0.10;;;;;;;19.02;42.64;93647.44;5051315;28;20577;-34
2022/10/14 09:37:33;;;;;;;0.40;0.40;;;;;;;18.85;43.13;93656.81;5063610;28;20024;-34
2022/10/14 09:40:00;;;;;;;;;;;;;;;18.73;43.64;93642.00;5069845;28;20077;-34
2022/10/14 09:42:40;;;;;;;0.32;0.32;;;;;;;19.13;43.78;93637.63;5067709;28;19916;-34
2022/10/14 09:45:09;;;;;;;0.85;0.85;;;;;;;19.47;41.97;93643.41;5051470;28;20028;-34
2022/10/14 09:47:41;;;;;;;0.20;0.20;;;;;;;19.78;40.78;93634.13;5067977;28;20052;-34
2022/10/14 09:50:08;;;;;;;0.25;0.25;;;;;;;19.49;42.09;93634.44;5069036;28;20055;-34
2022/10/14 09:52:36;;;;;;;0.52;0.52;;;;;;;19.29;41.96;93639.44;5062183;28;20516;-34
2022/10/14 09:55:01;;;;;;;0.30;0.28;;;;;;;19.21;41.56;93638.88;5051836;28;20051;-34
2022/10/14 09:57:27;;;;;;;1.00;0.43;;;;;;;19.64;41.30;93634.69;5048739;28;20415;-33
2022/10/14 09:59:59;;;;;;;0.40;0.40;;;;;;;20.21;40.03;93635.47;5070545;28;20019;-34
2022/10/14 10:02:35;;;;;;;0.10;0.10;;;;;;;20.12;40.70;93645.41;5072682;28;20052;-34
2022/10/14 10:05:17;;;;;;;0.80;0.50;;;;;;;19.04;41.80;93644.75;5070215;28;20544;-34
2022/10/14 10:07:43;;;;;;;0.20;0.20;;;;;;;19.20;42.87;93647.88;5045488;28;20068;-34
2022/10/14 10:10:21;;;;;;;0.17;0.17;;;;;;;19.57;41.39;93640.53;5071781;28;20047;-34
2022/10/14 10:12:46;;;;;;;1.57;0.57;;;;;;;19.56;41.62;93641.84;5069017;28;20090;-34
2022/10/14 10:15:18;;;;;;;0.10;0.10;;;;;;;19.41;42.44;93648.63;5072855;28;20500;-34
2022/10/14 10:17:44;;;;;;;1.15;0.68;;;;;;;19.86;41.43;93640.97;5066608;28;20074;-34
2022/10/14 10:20:19;;;;;;;0.25;0.17;;;;;;;19.91;41.07;93639.16;5072445;28;20095;-34
2022/10/14 10:22:45;;;;;;;0.20;0.20;;;;;;;19.03;42.19;93634.91;5072691;28;20059;-34
2022/10/14 10:25:13;;;;;;;0.20;0.20;;;;;;;18.69;42.96;93624.25;5054894;28;20131;-34
2022/10/14 10:27:48;;;;;;;0.75;0.63;;;;;;;18.41;43.93;93634.22;5072220;28;20112;-34
2022/10/14 10:30:16;;;;;;;0.30;0.30;;;;;;;18.48;44.57;93633.34;5070514;28;20082;-34
2022/10/14 10:33:09;;;;;;;0.30;0.30;;;;;;;17.98;44.03;93621.44;5061423;28;20063;-34
2022/10/14 10:35:54;;;;;;;0.20;0.20;;;;;;;17.83;44.63;93602.25;5072467;28;20058;-34
2022/10/14 10:38:30;;;;;;;0.17;0.17;;;;;;;17.62;44.44;93614.06;5068505;28;20234;-34
2022/10/14 10:41:14;;;;;;;0.20;0.20;;;;;;;17.68;44.72;93611.69;5041803;28;20029;-34
2022/10/14 10:44:05;;;;;;;0.10;0.10;;;;;;;17.95;44.95;93606.59;5065580;28;20039;-34
2022/10/14 10:46:50;;;;;;;0.38;0.38;;;;;;;18.35;43.82;93614.25;5068784;28;20055;-34
2022/10/14 10:49:40;;;;;;;0.22;0.22;;;;;;;18.07;43.93;93617.91;5066275;28;20025;-34
2022/10/14 10:52:27;;;;;;;0.30;0.30;;;;;;;17.77;43.72;93616.53;5066361;28;20037;-34
2022/10/14 10:55:10;;;;;;;0.10;0.10;;;;;;;17.55;44.85;93606.59;5071985;28;20060;-34
2022/10/14 10:57:54;;;;;;;0.13;0.13;;;;;;;17.47;44.63;93614.38;5066511;28;20036;-34
2022/10/14 11:00:22;;;;;;;0.20;0.20;;;;;;;17.31;44.69;93610.41;5053745;28;20543;-34
2022/10/14 11:02:59;;;;;;;0.10;0.10;;;;;;;17.34;46.06;93612.03;5069445;28;20079;-34
2022/10/14 11:05:50;;;;;;;0.10;0.10;;;;;;;17.55;44.13;93601.00;5070454;28;20086;-34
2022/10/14 11:12:13;;;;;;;0.10;0.10;;;;;;;17.88;44.00;93598.41;5069612;28;20573;-34
2022/10/14 11:14:50;;;;;;;0.38;0.38;;;;;;;17.44;44.66;93599.53;5070021;28;20120;-34
2022/10/14 11:17:43;;;;;;;0.10;0.10;;;;;;;17.46;44.53;93587.75;5071480;28;20530;-34
2022/10/14 11:20:17;;;;;;;0.20;0.20;;;;;;;17.53;44.54;93588.94;5049754;28;20029;-34
2022/10/14 11:23:15;;;;;;;0.10;0.10;;;;;;;17.79;44.60;93585.22;5071206;28;20427;-34
2022/10/14 11:25:52;;;;;;;1.95;0.52;;;;;;;18.15;43.53;93598.88;5059881;28;20109;-34
2022/10/14 11:28:17;;;;;;;0.28;0.28;;;;;;;18.16;42.97;93589.91;5050127;28;20031;-34
2022/10/14 11:30:52;;;;;;;0.15;0.15;;;;;;;17.75;43.79;93584.94;5048873;28;20029;-34
2022/10/14 11:33:47;;;;;;;0.57;0.30;;;;;;;18.34;43.64;93584.09;5048689;28;20421;-34
2022/10/14 11:36:39;;;;;;;0.20;0.20;;;;;;;18.82;43.49;93587.34;5043534;28;20100;-34
2022/10/14 11:39:04;;;;;;;0.10;0.10;;;;;;;18.93;41.02;93567.81;5063717;28;20090;-34
2022/10/14 11:41:35;;;;;;;0.30;0.30;;;;;;;18.62;41.34;93555.25;5070811;28;20482;-34
2022/10/14 11:44:13;;;;;;;0.15;0.15;;;;;;;18.39;42.17;93569.03;5070898;28;20082;-34
2022/10/14 11:46:44;;;;;;;0.38;0.38;;;;;;;18.14;42.25;93561.84;5046266;28;20502;-34
2022/10/14 11:49:13;;;;;;;0.10;0.10;;;;;;;18.03;43.02;93564.53;5052367;28;20020;-34